Terminal Aerodrome Forecast
Issued by NWS Jackson, KY

Home | Current Version | Previous Version | Text Only | Print | Product List | Glossary On
Versions: 1 2 3 4 5 6 7 8 9 10 11 12 13
000
FTUS43 KJKL 311100
TAFLOZ
TAF
KLOZ 311140Z 3112/0112 VRB03KT P6SM -RA OVC050
     FM311400 VRB03KT 6SM -SHRA BR SCT025 BKN040
     FM311600 VRB06KT 6SM -SHRA BR OVC025
     FM010000 29007KT 3SM -RA BR OVC012
     FM010500 30009KT 2SM -SN BR OVC007=

USA.gov is the U.S. government's official web portal to all federal, state and local government web resources and services.